sensor_id;sensor_type;location;lat;lon;timestamp;P1;durP1;ratioP1;P2;durP2;ratioP2
18274;SDS011;19470;49.322;7.218;2023-04-15T00:02:00;4.75;;;2.40;;
18274;SDS011;19470;49.322;7.218;2023-04-15T00:04:26;6.03;;;2.63;;
18274;SDS011;19470;49.322;7.218;2023-04-15T00:06:56;5.90;;;2.70;;
18274;SDS011;19470;49.322;7.218;2023-04-15T00:09:23;4.57;;;2.40;;
18274;SDS011;19470;49.322;7.218;2023-04-15T00:11:50;6.60;;;2.80;;
18274;SDS011;19470;49.322;7.218;2023-04-15T00:14:16;8.50;;;2.83;;
18274;SDS011;19470;49.322;7.218;2023-04-15T00:16:43;7.80;;;3.53;;
18274;SDS011;19470;49.322;7.218;2023-04-15T00:19:09;5.10;;;2.78;;
18274;SDS011;19470;49.322;7.218;2023-04-15T00:21:36;5.83;;;2.87;;
18274;SDS011;19470;49.322;7.218;2023-04-15T00:24:04;7.53;;;2.75;;
18274;SDS011;19470;49.322;7.218;2023-04-15T00:26:30;7.97;;;3.00;;
18274;SDS011;19470;49.322;7.218;2023-04-15T00:28:57;4.95;;;2.75;;
18274;SDS011;19470;49.322;7.218;2023-04-15T00:31:24;5.88;;;3.15;;
18274;SDS011;19470;49.322;7.218;2023-04-15T00:33:51;6.28;;;2.70;;
18274;SDS011;19470;49.322;7.218;2023-04-15T00:36:17;6.40;;;3.00;;
18274;SDS011;19470;49.322;7.218;2023-04-15T00:38:44;8.10;;;2.85;;
18274;SDS011;19470;49.322;7.218;2023-04-15T00:41:12;9.07;;;2.97;;
18274;SDS011;19470;49.322;7.218;2023-04-15T00:43:39;4.30;;;2.42;;
18274;SDS011;19470;49.322;7.218;2023-04-15T00:46:06;5.75;;;2.63;;
18274;SDS011;19470;49.322;7.218;2023-04-15T00:48:34;14.63;;;8.98;;
18274;SDS011;19470;49.322;7.218;2023-04-15T00:51:02;7.28;;;3.17;;
18274;SDS011;19470;49.322;7.218;2023-04-15T00:53:28;9.07;;;3.42;;
18274;SDS011;19470;49.322;7.218;2023-04-15T00:55:55;7.70;;;2.72;;
18274;SDS011;19470;49.322;7.218;2023-04-15T00:58:23;6.38;;;3.00;;
18274;SDS011;19470;49.322;7.218;2023-04-15T01:00:50;5.00;;;2.80;;
18274;SDS011;19470;49.322;7.218;2023-04-15T01:03:18;5.28;;;2.33;;
18274;SDS011;19470;49.322;7.218;2023-04-15T01:05:44;10.07;;;3.03;;
18274;SDS011;19470;49.322;7.218;2023-04-15T01:08:11;4.88;;;2.75;;
18274;SDS011;19470;49.322;7.218;2023-04-15T01:10:38;6.15;;;2.60;;
18274;SDS011;19470;49.322;7.218;2023-04-15T01:13:04;4.72;;;2.80;;
18274;SDS011;19470;49.322;7.218;2023-04-15T01:15:33;7.32;;;2.92;;
18274;SDS011;19470;49.322;7.218;2023-04-15T01:18:01;8.63;;;2.97;;
18274;SDS011;19470;49.322;7.218;2023-04-15T01:20:28;6.22;;;3.28;;
18274;SDS011;19470;49.322;7.218;2023-04-15T01:22:54;7.28;;;2.50;;
18274;SDS011;19470;49.322;7.218;2023-04-15T01:25:27;5.30;;;2.70;;
18274;SDS011;19470;49.322;7.218;2023-04-15T01:27:56;6.85;;;3.10;;
18274;SDS011;19470;49.322;7.218;2023-04-15T01:30:23;5.50;;;2.70;;
18274;SDS011;19470;49.322;7.218;2023-04-15T01:32:50;7.60;;;3.08;;
18274;SDS011;19470;49.322;7.218;2023-04-15T01:35:17;4.47;;;2.70;;
18274;SDS011;19470;49.322;7.218;2023-04-15T01:37:44;4.50;;;3.40;;
18274;SDS011;19470;49.322;7.218;2023-04-15T01:40:11;9.27;;;3.40;;
18274;SDS011;19470;49.322;7.218;2023-04-15T01:42:40;6.68;;;3.15;;
18274;SDS011;19470;49.322;7.218;2023-04-15T01:45:07;4.55;;;2.75;;
18274;SDS011;19470;49.322;7.218;2023-04-15T01:47:34;5.67;;;2.90;;
18274;SDS011;19470;49.322;7.218;2023-04-15T01:50:01;8.13;;;2.58;;
18274;SDS011;19470;49.322;7.218;2023-04-15T01:52:28;7.70;;;2.78;;
18274;SDS011;19470;49.322;7.218;2023-04-15T01:54:54;6.70;;;2.83;;
18274;SDS011;19470;49.322;7.218;2023-04-15T01:57:21;8.20;;;3.27;;
18274;SDS011;19470;49.322;7.218;2023-04-15T01:59:49;8.55;;;2.95;;
18274;SDS011;19470;49.322;7.218;2023-04-15T02:02:15;5.77;;;3.10;;
18274;SDS011;19470;49.322;7.218;2023-04-15T02:04:42;7.28;;;3.15;;
18274;SDS011;19470;49.322;7.218;2023-04-15T02:07:09;8.15;;;3.10;;
18274;SDS011;19470;49.322;7.218;2023-04-15T02:09:35;7.97;;;3.22;;
18274;SDS011;19470;49.322;7.218;2023-04-15T02:12:02;7.88;;;3.10;;
18274;SDS011;19470;49.322;7.218;2023-04-15T02:14:29;6.80;;;3.40;;
18274;SDS011;19470;49.322;7.218;2023-04-15T02:16:57;7.30;;;3.10;;
18274;SDS011;19470;49.322;7.218;2023-04-15T02:19:31;7.47;;;3.10;;
18274;SDS011;19470;49.322;7.218;2023-04-15T02:21:57;7.20;;;2.90;;
18274;SDS011;19470;49.322;7.218;2023-04-15T02:24:24;9.43;;;3.07;;
18274;SDS011;19470;49.322;7.218;2023-04-15T02:26:50;5.03;;;2.70;;
18274;SDS011;19470;49.322;7.218;2023-04-15T02:29:17;7.23;;;2.73;;
18274;SDS011;19470;49.322;7.218;2023-04-15T02:31:49;7.17;;;3.03;;
18274;SDS011;19470;49.322;7.218;2023-04-15T02:34:17;7.50;;;2.93;;
18274;SDS011;19470;49.322;7.218;2023-04-15T02:36:43;6.57;;;2.80;;
18274;SDS011;19470;49.322;7.218;2023-04-15T02:39:11;8.63;;;3.20;;
18274;SDS011;19470;49.322;7.218;2023-04-15T02:41:40;73.83;;;31.80;;
18274;SDS011;19470;49.322;7.218;2023-04-15T02:44:07;226.07;;;92.27;;
18274;SDS011;19470;49.322;7.218;2023-04-15T02:46:36;85.90;;;39.90;;
18274;SDS011;19470;49.322;7.218;2023-04-15T02:49:05;63.08;;;30.35;;
18274;SDS011;19470;49.322;7.218;2023-04-15T02:51:33;14.68;;;5.93;;
18274;SDS011;19470;49.322;7.218;2023-04-15T02:54:00;10.30;;;3.53;;
18274;SDS011;19470;49.322;7.218;2023-04-15T02:56:26;5.50;;;2.90;;
18274;SDS011;19470;49.322;7.218;2023-04-15T02:58:54;5.63;;;3.17;;
18274;SDS011;19470;49.322;7.218;2023-04-15T03:01:20;6.90;;;2.70;;
18274;SDS011;19470;49.322;7.218;2023-04-15T03:03:47;7.87;;;3.27;;
18274;SDS011;19470;49.322;7.218;2023-04-15T03:06:13;10.60;;;3.30;;
18274;SDS011;19470;49.322;7.218;2023-04-15T03:08:41;6.57;;;3.30;;
18274;SDS011;19470;49.322;7.218;2023-04-15T03:11:08;6.33;;;3.47;;
18274;SDS011;19470;49.322;7.218;2023-04-15T03:13:35;6.77;;;3.30;;
18274;SDS011;19470;49.322;7.218;2023-04-15T03:16:03;73.50;;;36.20;;
18274;SDS011;19470;49.322;7.218;2023-04-15T03:18:30;123.97;;;60.73;;
18274;SDS011;19470;49.322;7.218;2023-04-15T03:20:57;7.07;;;4.23;;
18274;SDS011;19470;49.322;7.218;2023-04-15T03:23:23;7.13;;;3.90;;
18274;SDS011;19470;49.322;7.218;2023-04-15T03:25:51;8.67;;;3.90;;
18274;SDS011;19470;49.322;7.218;2023-04-15T03:28:19;8.80;;;3.57;;
18274;SDS011;19470;49.322;7.218;2023-04-15T03:30:46;10.67;;;3.83;;
18274;SDS011;19470;49.322;7.218;2023-04-15T03:33:12;8.80;;;3.97;;
18274;SDS011;19470;49.322;7.218;2023-04-15T03:35:39;10.33;;;3.70;;
18274;SDS011;19470;49.322;7.218;2023-04-15T03:38:05;12.77;;;3.93;;
18274;SDS011;19470;49.322;7.218;2023-04-15T03:40:32;7.80;;;3.90;;
18274;SDS011;19470;49.322;7.218;2023-04-15T03:43:00;7.83;;;4.30;;
18274;SDS011;19470;49.322;7.218;2023-04-15T03:45:26;8.70;;;3.80;;
18274;SDS011;19470;49.322;7.218;2023-04-15T03:47:53;10.83;;;4.17;;
18274;SDS011;19470;49.322;7.218;2023-04-15T03:50:20;6.47;;;3.40;;
18274;SDS011;19470;49.322;7.218;2023-04-15T03:52:46;7.30;;;3.67;;
18274;SDS011;19470;49.322;7.218;2023-04-15T03:55:13;6.90;;;4.07;;
18274;SDS011;19470;49.322;7.218;2023-04-15T03:57:40;8.97;;;3.93;;
18274;SDS011;19470;49.322;7.218;2023-04-15T04:00:08;9.77;;;4.10;;
18274;SDS011;19470;49.322;7.218;2023-04-15T04:02:35;11.67;;;4.67;;
18274;SDS011;19470;49.322;7.218;2023-04-15T04:05:02;5.87;;;3.87;;
18274;SDS011;19470;49.322;7.218;2023-04-15T04:07:29;6.47;;;3.60;;
18274;SDS011;19470;49.322;7.218;2023-04-15T04:09:56;9.40;;;4.90;;
18274;SDS011;19470;49.322;7.218;2023-04-15T04:12:23;10.30;;;4.30;;
18274;SDS011;19470;49.322;7.218;2023-04-15T04:14:49;8.50;;;4.03;;
18274;SDS011;19470;49.322;7.218;2023-04-15T04:17:17;13.63;;;4.40;;
18274;SDS011;19470;49.322;7.218;2023-04-15T04:19:43;8.60;;;4.43;;
18274;SDS011;19470;49.322;7.218;2023-04-15T04:22:10;8.67;;;4.50;;
18274;SDS011;19470;49.322;7.218;2023-04-15T04:24:36;9.60;;;4.63;;
18274;SDS011;19470;49.322;7.218;2023-04-15T04:27:04;7.17;;;4.07;;
18274;SDS011;19470;49.322;7.218;2023-04-15T04:29:30;9.57;;;4.40;;
18274;SDS011;19470;49.322;7.218;2023-04-15T04:31:57;10.27;;;4.30;;
18274;SDS011;19470;49.322;7.218;2023-04-15T04:34:25;7.67;;;4.27;;
18274;SDS011;19470;49.322;7.218;2023-04-15T04:36:51;10.87;;;4.40;;
18274;SDS011;19470;49.322;7.218;2023-04-15T04:39:18;7.67;;;4.10;;
18274;SDS011;19470;49.322;7.218;2023-04-15T04:41:44;8.43;;;4.37;;
18274;SDS011;19470;49.322;7.218;2023-04-15T04:44:11;8.50;;;4.37;;
18274;SDS011;19470;49.322;7.218;2023-04-15T04:46:37;8.20;;;4.30;;
18274;SDS011;19470;49.322;7.218;2023-04-15T04:49:03;11.05;;;4.05;;
18274;SDS011;19470;49.322;7.218;2023-04-15T04:51:31;5.95;;;3.65;;
18274;SDS011;19470;49.322;7.218;2023-04-15T04:53:58;7.23;;;3.73;;
18274;SDS011;19470;49.322;7.218;2023-04-15T04:56:24;9.18;;;4.13;;
18274;SDS011;19470;49.322;7.218;2023-04-15T04:58:51;7.93;;;4.17;;
18274;SDS011;19470;49.322;7.218;2023-04-15T05:01:17;11.20;;;5.43;;
18274;SDS011;19470;49.322;7.218;2023-04-15T05:03:44;11.00;;;4.90;;
18274;SDS011;19470;49.322;7.218;2023-04-15T05:06:11;7.37;;;4.47;;
18274;SDS011;19470;49.322;7.218;2023-04-15T05:08:39;7.60;;;4.40;;
18274;SDS011;19470;49.322;7.218;2023-04-15T05:11:06;8.60;;;4.57;;
18274;SDS011;19470;49.322;7.218;2023-04-15T05:13:33;12.07;;;4.40;;
18274;SDS011;19470;49.322;7.218;2023-04-15T05:16:02;8.70;;;5.07;;
18274;SDS011;19470;49.322;7.218;2023-04-15T05:18:29;6.60;;;4.00;;
18274;SDS011;19470;49.322;7.218;2023-04-15T05:20:56;9.77;;;4.77;;
18274;SDS011;19470;49.322;7.218;2023-04-15T05:23:23;10.27;;;5.17;;
18274;SDS011;19470;49.322;7.218;2023-04-15T05:25:51;9.63;;;4.73;;
18274;SDS011;19470;49.322;7.218;2023-04-15T05:28:17;9.57;;;4.47;;
18274;SDS011;19470;49.322;7.218;2023-04-15T05:30:44;10.30;;;4.50;;
18274;SDS011;19470;49.322;7.218;2023-04-15T05:33:10;10.20;;;4.63;;
18274;SDS011;19470;49.322;7.218;2023-04-15T05:35:37;12.20;;;4.43;;
18274;SDS011;19470;49.322;7.218;2023-04-15T05:38:03;9.47;;;4.40;;
18274;SDS011;19470;49.322;7.218;2023-04-15T05:40:30;6.22;;;4.15;;
18274;SDS011;19470;49.322;7.218;2023-04-15T05:42:58;8.00;;;4.30;;
18274;SDS011;19470;49.322;7.218;2023-04-15T05:45:25;8.88;;;4.38;;
18274;SDS011;19470;49.322;7.218;2023-04-15T05:47:51;10.63;;;4.28;;
18274;SDS011;19470;49.322;7.218;2023-04-15T05:50:18;8.07;;;4.60;;
18274;SDS011;19470;49.322;7.218;2023-04-15T05:52:45;11.60;;;3.97;;
18274;SDS011;19470;49.322;7.218;2023-04-15T05:55:12;9.45;;;3.80;;
18274;SDS011;19470;49.322;7.218;2023-04-15T05:57:39;6.28;;;3.90;;
18274;SDS011;19470;49.322;7.218;2023-04-15T06:00:07;8.82;;;4.10;;
18274;SDS011;19470;49.322;7.218;2023-04-15T06:02:35;10.25;;;4.20;;
18274;SDS011;19470;49.322;7.218;2023-04-15T06:05:01;9.07;;;4.63;;
18274;SDS011;19470;49.322;7.218;2023-04-15T06:07:29;8.10;;;4.82;;
18274;SDS011;19470;49.322;7.218;2023-04-15T06:09:55;7.13;;;4.50;;
18274;SDS011;19470;49.322;7.218;2023-04-15T06:12:22;7.90;;;4.78;;
18274;SDS011;19470;49.322;7.218;2023-04-15T06:14:48;6.63;;;4.72;;
18274;SDS011;19470;49.322;7.218;2023-04-15T06:17:16;5.93;;;4.25;;
18274;SDS011;19470;49.322;7.218;2023-04-15T06:19:43;7.28;;;5.35;;
18274;SDS011;19470;49.322;7.218;2023-04-15T06:22:09;6.55;;;5.45;;
18274;SDS011;19470;49.322;7.218;2023-04-15T06:24:36;5.97;;;5.28;;
18274;SDS011;19470;49.322;7.218;2023-04-15T06:27:03;9.98;;;7.35;;
18274;SDS011;19470;49.322;7.218;2023-04-15T06:29:29;8.25;;;7.43;;
18274;SDS011;19470;49.322;7.218;2023-04-15T06:31:56;10.50;;;9.57;;
18274;SDS011;19470;49.322;7.218;2023-04-15T06:34:24;10.05;;;9.15;;
18274;SDS011;19470;49.322;7.218;2023-04-15T06:36:51;9.82;;;8.40;;
18274;SDS011;19470;49.322;7.218;2023-04-15T06:39:18;13.38;;;12.07;;
18274;SDS011;19470;49.322;7.218;2023-04-15T06:41:45;25.08;;;23.25;;
18274;SDS011;19470;49.322;7.218;2023-04-15T06:44:12;27.90;;;25.83;;
18274;SDS011;19470;49.322;7.218;2023-04-15T06:46:38;43.00;;;40.22;;
18274;SDS011;19470;49.322;7.218;2023-04-15T06:49:05;45.40;;;42.40;;
18274;SDS011;19470;49.322;7.218;2023-04-15T06:51:34;42.30;;;39.17;;
18274;SDS011;19470;49.322;7.218;2023-04-15T06:54:01;63.47;;;58.78;;
18274;SDS011;19470;49.322;7.218;2023-04-15T06:56:29;37.08;;;34.33;;
18274;SDS011;19470;49.322;7.218;2023-04-15T06:58:56;67.95;;;63.67;;
18274;SDS011;19470;49.322;7.218;2023-04-15T07:01:23;64.80;;;60.92;;
18274;SDS011;19470;49.322;7.218;2023-04-15T07:03:49;65.15;;;61.45;;
18274;SDS011;19470;49.322;7.218;2023-04-15T07:06:16;71.25;;;67.35;;
18274;SDS011;19470;49.322;7.218;2023-04-15T07:08:44;87.65;;;82.85;;
18274;SDS011;19470;49.322;7.218;2023-04-15T07:11:10;125.38;;;118.95;;
18274;SDS011;19470;49.322;7.218;2023-04-15T07:13:37;137.32;;;130.27;;
18274;SDS011;19470;49.322;7.218;2023-04-15T07:16:04;144.70;;;137.38;;
18274;SDS011;19470;49.322;7.218;2023-04-15T07:18:30;150.38;;;142.55;;
18274;SDS011;19470;49.322;7.218;2023-04-15T07:20:57;142.93;;;135.55;;
18274;SDS011;19470;49.322;7.218;2023-04-15T07:23:23;149.90;;;142.18;;
18274;SDS011;19470;49.322;7.218;2023-04-15T07:25:51;174.43;;;165.48;;
18274;SDS011;19470;49.322;7.218;2023-04-15T07:28:18;165.20;;;156.18;;
18274;SDS011;19470;49.322;7.218;2023-04-15T07:30:44;175.98;;;166.98;;
18274;SDS011;19470;49.322;7.218;2023-04-15T07:33:11;178.70;;;169.60;;
18274;SDS011;19470;49.322;7.218;2023-04-15T07:35:37;163.10;;;154.65;;
18274;SDS011;19470;49.322;7.218;2023-04-15T07:38:04;140.95;;;133.70;;
18274;SDS011;19470;49.322;7.218;2023-04-15T07:40:31;148.02;;;140.40;;
18274;SDS011;19470;49.322;7.218;2023-04-15T07:42:59;100.10;;;94.55;;
18274;SDS011;19470;49.322;7.218;2023-04-15T07:45:26;98.07;;;92.97;;
18274;SDS011;19470;49.322;7.218;2023-04-15T07:47:52;99.75;;;94.57;;
18274;SDS011;19470;49.322;7.218;2023-04-15T07:50:20;118.18;;;112.07;;
18274;SDS011;19470;49.322;7.218;2023-04-15T07:52:47;146.30;;;138.88;;
18274;SDS011;19470;49.322;7.218;2023-04-15T07:55:14;107.63;;;102.07;;
18274;SDS011;19470;49.322;7.218;2023-04-15T07:57:43;114.32;;;108.32;;
18274;SDS011;19470;49.322;7.218;2023-04-15T08:00:13;110.35;;;104.63;;
18274;SDS011;19470;49.322;7.218;2023-04-15T08:02:40;105.50;;;100.28;;
18274;SDS011;19470;49.322;7.218;2023-04-15T08:05:07;105.85;;;100.60;;
18274;SDS011;19470;49.322;7.218;2023-04-15T08:07:34;124.90;;;118.32;;
18274;SDS011;19470;49.322;7.218;2023-04-15T08:10:02;130.15;;;123.50;;
18274;SDS011;19470;49.322;7.218;2023-04-15T08:12:28;149.23;;;141.63;;
18274;SDS011;19470;49.322;7.218;2023-04-15T08:18:03;147.02;;;139.65;;
18274;SDS011;19470;49.322;7.218;2023-04-15T08:20:30;212.15;;;201.55;;
18274;SDS011;19470;49.322;7.218;2023-04-15T08:22:57;167.45;;;158.95;;
18274;SDS011;19470;49.322;7.218;2023-04-15T08:25:23;152.90;;;145.05;;
18274;SDS011;19470;49.322;7.218;2023-04-15T08:27:50;265.77;;;252.23;;
18274;SDS011;19470;49.322;7.218;2023-04-15T08:30:17;277.73;;;263.60;;
18274;SDS011;19470;49.322;7.218;2023-04-15T08:32:44;206.63;;;196.10;;
18274;SDS011;19470;49.322;7.218;2023-04-15T08:35:12;266.20;;;253.07;;
18274;SDS011;19470;49.322;7.218;2023-04-15T08:37:39;228.63;;;217.20;;
18274;SDS011;19470;49.322;7.218;2023-04-15T08:40:07;172.57;;;163.73;;
18274;SDS011;19470;49.322;7.218;2023-04-15T08:42:36;215.45;;;204.75;;
18274;SDS011;19470;49.322;7.218;2023-04-15T08:45:05;157.80;;;149.38;;
18274;SDS011;19470;49.322;7.218;2023-04-15T08:47:35;160.43;;;152.00;;
18274;SDS011;19470;49.322;7.218;2023-04-15T08:50:03;196.68;;;186.65;;
18274;SDS011;19470;49.322;7.218;2023-04-15T08:52:35;191.15;;;181.40;;
18274;SDS011;19470;49.322;7.218;2023-04-15T08:55:02;247.95;;;235.48;;
18274;SDS011;19470;49.322;7.218;2023-04-15T08:57:30;368.13;;;349.02;;
18274;SDS011;19470;49.322;7.218;2023-04-15T08:59:58;382.90;;;362.77;;
18274;SDS011;19470;49.322;7.218;2023-04-15T09:02:27;388.63;;;368.08;;
18274;SDS011;19470;49.322;7.218;2023-04-15T09:04:54;416.48;;;394.13;;
18274;SDS011;19470;49.322;7.218;2023-04-15T09:07:20;397.67;;;376.17;;
18274;SDS011;19470;49.322;7.218;2023-04-15T09:09:48;424.23;;;401.55;;
18274;SDS011;19470;49.322;7.218;2023-04-15T09:12:15;454.13;;;429.45;;
18274;SDS011;19470;49.322;7.218;2023-04-15T09:14:44;436.42;;;413.00;;
18274;SDS011;19470;49.322;7.218;2023-04-15T09:17:11;500.23;;;472.45;;
18274;SDS011;19470;49.322;7.218;2023-04-15T09:19:37;532.13;;;501.88;;
18274;SDS011;19470;49.322;7.218;2023-04-15T09:22:04;515.38;;;486.30;;
18274;SDS011;19470;49.322;7.218;2023-04-15T09:24:35;557.00;;;524.35;;
18274;SDS011;19470;49.322;7.218;2023-04-15T09:27:04;531.78;;;501.35;;
18274;SDS011;19470;49.322;7.218;2023-04-15T09:29:31;561.17;;;528.88;;
18274;SDS011;19470;49.322;7.218;2023-04-15T09:32:07;563.20;;;530.45;;
18274;SDS011;19470;49.322;7.218;2023-04-15T09:34:35;575.40;;;541.75;;
18274;SDS011;19470;49.322;7.218;2023-04-15T09:37:01;612.00;;;575.22;;
18274;SDS011;19470;49.322;7.218;2023-04-15T09:39:29;620.15;;;582.80;;
18274;SDS011;19470;49.322;7.218;2023-04-15T09:42:12;650.85;;;610.63;;
18274;SDS011;19470;49.322;7.218;2023-04-15T09:44:39;630.58;;;592.22;;
18274;SDS011;19470;49.322;7.218;2023-04-15T09:47:05;589.00;;;554.28;;
18274;SDS011;19470;49.322;7.218;2023-04-15T09:49:32;592.95;;;557.33;;
18274;SDS011;19470;49.322;7.218;2023-04-15T09:51:59;635.67;;;597.33;;
18274;SDS011;19470;49.322;7.218;2023-04-15T09:54:31;637.80;;;598.95;;
18274;SDS011;19470;49.322;7.218;2023-04-15T09:57:04;674.00;;;632.20;;
18274;SDS011;19470;49.322;7.218;2023-04-15T09:59:32;638.85;;;599.83;;
18274;SDS011;19470;49.322;7.218;2023-04-15T10:01:59;635.22;;;596.38;;
18274;SDS011;19470;49.322;7.218;2023-04-15T10:04:29;655.08;;;614.85;;
18274;SDS011;19470;49.322;7.218;2023-04-15T10:06:58;649.03;;;609.53;;
18274;SDS011;19470;49.322;7.218;2023-04-15T10:09:26;634.17;;;595.78;;
18274;SDS011;19470;49.322;7.218;2023-04-15T10:11:53;634.00;;;595.92;;
18274;SDS011;19470;49.322;7.218;2023-04-15T10:14:20;631.45;;;593.42;;
18274;SDS011;19470;49.322;7.218;2023-04-15T10:16:48;621.63;;;584.47;;
18274;SDS011;19470;49.322;7.218;2023-04-15T10:19:15;625.83;;;588.08;;
18274;SDS011;19470;49.322;7.218;2023-04-15T10:21:45;625.33;;;587.50;;
18274;SDS011;19470;49.322;7.218;2023-04-15T10:24:12;616.28;;;578.72;;
18274;SDS011;19470;49.322;7.218;2023-04-15T10:26:40;601.22;;;565.60;;
18274;SDS011;19470;49.322;7.218;2023-04-15T10:29:08;610.38;;;573.97;;
18274;SDS011;19470;49.322;7.218;2023-04-15T10:31:35;596.10;;;561.33;;
18274;SDS011;19470;49.322;7.218;2023-04-15T10:34:04;572.25;;;538.95;;
18274;SDS011;19470;49.322;7.218;2023-04-15T10:36:31;585.20;;;550.55;;
18274;SDS011;19470;49.322;7.218;2023-04-15T10:38:58;597.13;;;561.92;;
18274;SDS011;19470;49.322;7.218;2023-04-15T10:41:25;602.58;;;567.03;;
18274;SDS011;19470;49.322;7.218;2023-04-15T10:43:55;604.05;;;568.35;;
18274;SDS011;19470;49.322;7.218;2023-04-15T10:46:33;623.38;;;585.83;;
18274;SDS011;19470;49.322;7.218;2023-04-15T10:49:07;623.50;;;585.90;;
18274;SDS011;19470;49.322;7.218;2023-04-15T10:51:36;558.00;;;526.10;;
18274;SDS011;19470;49.322;7.218;2023-04-15T10:54:06;539.92;;;509.38;;
18274;SDS011;19470;49.322;7.218;2023-04-15T10:56:35;534.58;;;504.27;;
18274;SDS011;19470;49.322;7.218;2023-04-15T10:59:01;518.58;;;489.20;;
18274;SDS011;19470;49.322;7.218;2023-04-15T11:07:35;434.23;;;410.80;;
18274;SDS011;19470;49.322;7.218;2023-04-15T11:10:03;397.90;;;376.98;;
18274;SDS011;19470;49.322;7.218;2023-04-15T11:13:20;424.95;;;402.38;;
18274;SDS011;19470;49.322;7.218;2023-04-15T11:15:49;414.67;;;392.95;;
18274;SDS011;19470;49.322;7.218;2023-04-15T11:18:16;478.65;;;452.38;;
18274;SDS011;19470;49.322;7.218;2023-04-15T11:20:44;489.00;;;462.05;;
18274;SDS011;19470;49.322;7.218;2023-04-15T11:23:12;489.77;;;461.40;;
18274;SDS011;19470;49.322;7.218;2023-04-15T11:25:39;509.45;;;480.52;;
18274;SDS011;19470;49.322;7.218;2023-04-15T11:28:06;540.22;;;508.50;;
18274;SDS011;19470;49.322;7.218;2023-04-15T11:30:35;559.03;;;527.00;;
18274;SDS011;19470;49.322;7.218;2023-04-15T11:33:03;576.92;;;543.10;;
18274;SDS011;19470;49.322;7.218;2023-04-15T11:35:32;583.60;;;548.65;;
18274;SDS011;19470;49.322;7.218;2023-04-15T11:38:01;637.72;;;598.92;;
18274;SDS011;19470;49.322;7.218;2023-04-15T11:40:29;632.83;;;594.08;;
18274;SDS011;19470;49.322;7.218;2023-04-15T11:43:04;628.63;;;590.63;;
18274;SDS011;19470;49.322;7.218;2023-04-15T11:45:31;601.63;;;565.15;;
18274;SDS011;19470;49.322;7.218;2023-04-15T11:48:06;616.78;;;579.55;;
18274;SDS011;19470;49.322;7.218;2023-04-15T11:50:33;610.45;;;573.95;;
18274;SDS011;19470;49.322;7.218;2023-04-15T11:53:01;611.78;;;575.13;;
18274;SDS011;19470;49.322;7.218;2023-04-15T11:55:28;605.47;;;569.28;;
18274;SDS011;19470;49.322;7.218;2023-04-15T11:58:05;606.22;;;569.92;;
18274;SDS011;19470;49.322;7.218;2023-04-15T12:00:34;614.42;;;577.47;;
18274;SDS011;19470;49.322;7.218;2023-04-15T12:03:20;610.90;;;574.38;;
18274;SDS011;19470;49.322;7.218;2023-04-15T12:06:04;609.00;;;572.72;;
18274;SDS011;19470;49.322;7.218;2023-04-15T12:08:47;581.10;;;546.75;;
18274;SDS011;19470;49.322;7.218;2023-04-15T12:11:15;581.78;;;547.45;;
18274;SDS011;19470;49.322;7.218;2023-04-15T12:13:42;599.05;;;563.55;;
18274;SDS011;19470;49.322;7.218;2023-04-15T12:16:09;608.35;;;572.17;;
18274;SDS011;19470;49.322;7.218;2023-04-15T12:18:37;587.30;;;552.67;;
18274;SDS011;19470;49.322;7.218;2023-04-15T12:21:08;582.35;;;546.33;;
18274;SDS011;19470;49.322;7.218;2023-04-15T12:23:35;563.28;;;529.63;;
18274;SDS011;19470;49.322;7.218;2023-04-15T12:26:03;570.88;;;537.47;;
18274;SDS011;19470;49.322;7.218;2023-04-15T12:28:30;574.08;;;540.55;;
18274;SDS011;19470;49.322;7.218;2023-04-15T12:30:57;589.30;;;554.63;;
18274;SDS011;19470;49.322;7.218;2023-04-15T12:33:31;553.08;;;520.88;;
18274;SDS011;19470;49.322;7.218;2023-04-15T12:35:59;551.92;;;520.10;;
18274;SDS011;19470;49.322;7.218;2023-04-15T12:38:25;583.40;;;549.38;;
18274;SDS011;19470;49.322;7.218;2023-04-15T12:40:52;599.28;;;564.10;;
18274;SDS011;19470;49.322;7.218;2023-04-15T12:43:19;587.78;;;553.10;;
18274;SDS011;19470;49.322;7.218;2023-04-15T12:45:45;585.20;;;551.20;;
18274;SDS011;19470;49.322;7.218;2023-04-15T12:48:12;567.20;;;534.40;;
18274;SDS011;19470;49.322;7.218;2023-04-15T12:50:38;566.17;;;533.30;;
18274;SDS011;19470;49.322;7.218;2023-04-15T12:53:06;559.83;;;527.58;;
18274;SDS011;19470;49.322;7.218;2023-04-15T12:55:33;551.67;;;519.72;;
18274;SDS011;19470;49.322;7.218;2023-04-15T12:57:59;584.72;;;550.25;;
18274;SDS011;19470;49.322;7.218;2023-04-15T13:00:26;562.95;;;530.42;;
18274;SDS011;19470;49.322;7.218;2023-04-15T13:02:53;541.10;;;510.38;;
18274;SDS011;19470;49.322;7.218;2023-04-15T13:05:19;523.88;;;494.30;;
18274;SDS011;19470;49.322;7.218;2023-04-15T13:07:46;533.17;;;503.00;;
18274;SDS011;19470;49.322;7.218;2023-04-15T13:10:13;515.50;;;486.77;;
18274;SDS011;19470;49.322;7.218;2023-04-15T13:12:40;509.48;;;481.08;;
18274;SDS011;19470;49.322;7.218;2023-04-15T13:15:07;497.60;;;469.52;;
18274;SDS011;19470;49.322;7.218;2023-04-15T13:17:35;503.05;;;475.23;;
18274;SDS011;19470;49.322;7.218;2023-04-15T13:20:01;510.65;;;482.33;;
18274;SDS011;19470;49.322;7.218;2023-04-15T13:22:28;490.10;;;463.23;;
18274;SDS011;19470;49.322;7.218;2023-04-15T13:24:55;493.80;;;466.85;;
18274;SDS011;19470;49.322;7.218;2023-04-15T13:27:23;487.75;;;461.02;;
18274;SDS011;19470;49.322;7.218;2023-04-15T13:29:49;510.05;;;481.88;;
18274;SDS011;19470;49.322;7.218;2023-04-15T13:32:16;524.38;;;494.88;;
18274;SDS011;19470;49.322;7.218;2023-04-15T13:34:43;541.08;;;510.40;;
18274;SDS011;19470;49.322;7.218;2023-04-15T13:37:09;555.63;;;523.97;;
18274;SDS011;19470;49.322;7.218;2023-04-15T13:39:36;542.97;;;512.03;;
18274;SDS011;19470;49.322;7.218;2023-04-15T13:42:02;535.72;;;505.80;;
18274;SDS011;19470;49.322;7.218;2023-04-15T13:44:30;531.97;;;502.08;;
18274;SDS011;19470;49.322;7.218;2023-04-15T13:46:57;535.08;;;504.85;;
18274;SDS011;19470;49.322;7.218;2023-04-15T13:49:23;539.53;;;509.23;;
18274;SDS011;19470;49.322;7.218;2023-04-15T13:51:50;523.58;;;494.27;;
18274;SDS011;19470;49.322;7.218;2023-04-15T13:54:16;538.75;;;508.42;;
18274;SDS011;19470;49.322;7.218;2023-04-15T13:56:43;532.92;;;503.02;;
18274;SDS011;19470;49.322;7.218;2023-04-15T13:59:10;520.97;;;491.90;;
18274;SDS011;19470;49.322;7.218;2023-04-15T14:01:38;507.80;;;479.65;;
18274;SDS011;19470;49.322;7.218;2023-04-15T14:04:05;499.38;;;471.70;;
18274;SDS011;19470;49.322;7.218;2023-04-15T14:06:31;483.27;;;456.58;;
18274;SDS011;19470;49.322;7.218;2023-04-15T14:08:58;485.75;;;458.85;;
18274;SDS011;19470;49.322;7.218;2023-04-15T14:11:25;489.95;;;463.10;;
18274;SDS011;19470;49.322;7.218;2023-04-15T14:13:51;489.77;;;462.48;;
18274;SDS011;19470;49.322;7.218;2023-04-15T14:16:17;492.33;;;464.83;;
18274;SDS011;19470;49.322;7.218;2023-04-15T14:18:45;498.60;;;471.20;;
18274;SDS011;19470;49.322;7.218;2023-04-15T14:21:12;538.08;;;507.67;;
18274;SDS011;19470;49.322;7.218;2023-04-15T14:23:39;507.13;;;478.80;;
18274;SDS011;19470;49.322;7.218;2023-04-15T14:26:06;530.90;;;500.60;;
18274;SDS011;19470;49.322;7.218;2023-04-15T14:28:33;509.05;;;480.42;;
18274;SDS011;19470;49.322;7.218;2023-04-15T14:30:59;511.90;;;483.40;;